Time;durP1;ratioP1;P1;durP2;ratioP2;P2;SDS_P1;SDS_P2;PMS_P1;PMS_P2;Temp;Humidity;BMP_temperature;BMP_pressure;BME280_temperature;BME280_humidity;BME280_pressure;Samples;Min_cycle;Max_cycle;Signal;HPM_P1;HPM_P2
2024/01/09 00:01:10;;;;;;;0.28;0.20;;;;;;;;;;5010967;28;20049;-85
2024/01/09 00:03:36;;;;;;;0.10;0.10;;;;;;;;;;4994732;28;20038;-84
2024/01/09 00:06:02;;;;;;;0.10;0.10;;;;;;;;;;5011262;28;20041;-85
2024/01/09 00:08:28;;;;;;;0.30;0.30;;;;;;;;;;4994721;28;20057;-85
2024/01/09 00:10:54;;;;;;;0.30;0.20;;;;;;;;;;5011021;28;20396;-85
2024/01/09 00:13:20;;;;;;;0.20;0.20;;;;;;;;;;5010901;28;20038;-85
2024/01/09 00:15:46;;;;;;;0.20;0.20;;;;;;;;;;5010798;28;20401;-85
2024/01/09 00:18:12;;;;;;;0.10;0.10;;;;;;;;;;4994612;28;20046;-85
2024/01/09 00:20:38;;;;;;;0.10;0.10;;;;;;;;;;5010782;28;20038;-84
2024/01/09 00:23:04;;;;;;;0.35;0.35;;;;;;;;;;5011016;28;20461;-85
2024/01/09 00:25:31;;;;;;;0.10;0.10;;;;;;;;;;5011027;28;20041;-85
2024/01/09 00:27:58;;;;;;;0.20;0.20;;;;;;;;;;4980034;28;20050;-85
2024/01/09 00:30:24;;;;;;;0.20;0.20;;;;;;;;;;4998284;28;20068;-85
2024/01/09 00:32:50;;;;;;;0.10;0.10;;;;;;;;;;5014561;28;20037;-84
2024/01/09 00:35:17;;;;;;;0.10;0.10;;;;;;;;;;4998050;28;20041;-84
2024/01/09 00:37:43;;;;;;;0.50;0.28;;;;;;;;;;4982156;28;20128;-85
2024/01/09 00:40:09;;;;;;;0.10;0.10;;;;;;;;;;4981984;28;20431;-84
2024/01/09 00:42:35;;;;;;;0.10;0.10;;;;;;;;;;5014346;28;20065;-84
2024/01/09 00:45:01;;;;;;;0.10;0.10;;;;;;;;;;4998172;28;20486;-85
2024/01/09 00:47:28;;;;;;;0.10;0.10;;;;;;;;;;5014127;28;20048;-84
2024/01/09 00:49:54;;;;;;;0.20;0.20;;;;;;;;;;4997963;28;20038;-84
2024/01/09 00:52:23;;;;;;;0.10;0.10;;;;;;;;;;4997961;28;20125;-85
2024/01/09 00:54:49;;;;;;;0.10;0.10;;;;;;;;;;4981498;28;20042;-84
2024/01/09 00:57:15;;;;;;;0.10;0.10;;;;;;;;;;5014085;28;20057;-84
2024/01/09 00:59:41;;;;;;;0.20;0.20;;;;;;;;;;5014031;28;20456;-84
2024/01/09 01:02:07;;;;;;;0.10;0.10;;;;;;;;;;4981776;28;20379;-85
2024/01/09 01:04:33;;;;;;;0.10;0.10;;;;;;;;;;5014077;28;20055;-84
2024/01/09 01:06:59;;;;;;;0.17;0.17;;;;;;;;;;4998058;28;20162;-84
2024/01/09 01:09:25;;;;;;;0.20;0.20;;;;;;;;;;4981362;28;20252;-84
2024/01/09 01:11:51;;;;;;;0.20;0.20;;;;;;;;;;5013708;28;20053;-85
2024/01/09 01:14:17;;;;;;;0.10;0.10;;;;;;;;;;4997611;28;20060;-84
2024/01/09 01:16:43;;;;;;;0.10;0.10;;;;;;;;;;4997474;28;20045;-85
2024/01/09 01:19:09;;;;;;;0.20;0.20;;;;;;;;;;4997456;28;20045;-84
2024/01/09 01:21:35;;;;;;;0.65;0.45;;;;;;;;;;5013854;28;20521;-85
2024/01/09 01:24:01;;;;;;;0.40;0.40;;;;;;;;;;4997242;28;20038;-85
2024/01/09 01:26:27;;;;;;;0.10;0.10;;;;;;;;;;4981120;28;20121;-84
2024/01/09 01:28:53;;;;;;;0.10;0.10;;;;;;;;;;4997372;28;20049;-85
2024/01/09 01:31:19;;;;;;;0.13;0.13;;;;;;;;;;5013663;28;20034;-84
2024/01/09 01:33:45;;;;;;;0.10;0.10;;;;;;;;;;4997219;28;20045;-85
2024/01/09 01:36:17;;;;;;;0.77;0.32;;;;;;;;;;4997111;28;20045;-84
2024/01/09 01:38:43;;;;;;;0.10;0.10;;;;;;;;;;5013031;28;20493;-85
2024/01/09 01:41:09;;;;;;;0.10;0.10;;;;;;;;;;5013029;28;20042;-85
2024/01/09 01:43:35;;;;;;;0.10;0.10;;;;;;;;;;4997282;28;20041;-86
2024/01/09 01:46:04;;;;;;;1.52;1.45;;;;;;;;;;5013427;28;20077;-85
2024/01/09 01:48:31;;;;;;;0.20;0.20;;;;;;;;;;4980849;28;20084;-85
2024/01/09 01:50:57;;;;;;;0.63;0.50;;;;;;;;;;4980869;28;20084;-85
2024/01/09 01:53:23;;;;;;;0.30;0.30;;;;;;;;;;4996732;28;20046;-85
2024/01/09 01:55:49;;;;;;;1.08;0.35;;;;;;;;;;4996563;28;20449;-85
2024/01/09 01:58:15;;;;;;;0.20;0.20;;;;;;;;;;5013078;28;20038;-85
2024/01/09 02:00:41;;;;;;;0.38;0.38;;;;;;;;;;4996628;28;20084;-85
2024/01/09 02:03:07;;;;;;;0.65;0.40;;;;;;;;;;4996961;28;20119;-85
2024/01/09 02:05:33;;;;;;;0.10;0.10;;;;;;;;;;4996617;28;20125;-85
2024/01/09 02:07:59;;;;;;;0.43;0.43;;;;;;;;;;4996600;28;20042;-85
2024/01/09 02:10:25;;;;;;;0.10;0.10;;;;;;;;;;4996640;28;20053;-85
2024/01/09 02:12:51;;;;;;;0.10;0.10;;;;;;;;;;4996484;28;20052;-85
2024/01/09 02:15:17;;;;;;;0.20;0.20;;;;;;;;;;4996444;28;20037;-85
2024/01/09 02:17:44;;;;;;;0.80;0.68;;;;;;;;;;5012649;28;20050;-85
2024/01/09 02:20:10;;;;;;;0.20;0.20;;;;;;;;;;5012750;28;20042;-85
2024/01/09 02:22:36;;;;;;;0.10;0.10;;;;;;;;;;4996770;28;20042;-85
2024/01/09 02:25:05;;;;;;;0.17;0.17;;;;;;;;;;4996020;28;20060;-85
2024/01/09 02:27:44;;;;;;;0.30;0.30;;;;;;;;;;4996293;28;20066;-85
2024/01/09 02:30:10;;;;;;;0.10;0.10;;;;;;;;;;5012589;28;20505;-85
2024/01/09 02:32:36;;;;;;;0.20;0.20;;;;;;;;;;5012630;28;20096;-85
2024/01/09 02:35:02;;;;;;;0.20;0.20;;;;;;;;;;4995972;28;20050;-85
2024/01/09 02:37:28;;;;;;;0.20;0.20;;;;;;;;;;4995958;28;20038;-85
2024/01/09 02:40:00;;;;;;;0.20;0.20;;;;;;;;;;4995864;28;20392;-85
2024/01/09 02:42:26;;;;;;;0.20;0.20;;;;;;;;;;5012312;28;20543;-85
2024/01/09 02:44:54;;;;;;;0.17;0.17;;;;;;;;;;4996137;28;20041;-85
2024/01/09 02:47:20;;;;;;;0.10;0.10;;;;;;;;;;4979884;28;20037;-85
2024/01/09 02:49:46;;;;;;;0.35;0.25;;;;;;;;;;4995765;28;20516;-85
2024/01/09 02:52:12;;;;;;;0.10;0.10;;;;;;;;;;4994897;28;20037;-85
2024/01/09 02:54:38;;;;;;;0.10;0.10;;;;;;;;;;5012188;28;20041;-85
2024/01/09 02:57:04;;;;;;;0.30;0.30;;;;;;;;;;5011749;28;20054;-85
2024/01/09 02:59:30;;;;;;;0.10;0.10;;;;;;;;;;4995526;28;20038;-85
2024/01/09 03:01:56;;;;;;;0.20;0.20;;;;;;;;;;5011881;28;20042;-85
2024/01/09 03:04:22;;;;;;;0.10;0.10;;;;;;;;;;4995900;28;20107;-85
2024/01/09 03:06:48;;;;;;;1.15;0.52;;;;;;;;;;4995457;28;20129;-85
2024/01/09 03:09:16;;;;;;;0.30;0.30;;;;;;;;;;5011907;28;20042;-84
2024/01/09 03:11:42;;;;;;;0.10;0.10;;;;;;;;;;4979457;28;20583;-85
2024/01/09 03:14:08;;;;;;;0.20;0.20;;;;;;;;;;4995339;28;20085;-85
2024/01/09 03:16:33;;;;;;;0.10;0.10;;;;;;;;;;4995722;28;20042;-85
2024/01/09 03:18:59;;;;;;;0.20;0.20;;;;;;;;;;5011564;28;20523;-85
2024/01/09 03:21:25;;;;;;;0.10;0.10;;;;;;;;;;4979049;28;20053;-85
2024/01/09 03:23:51;;;;;;;2.03;0.40;;;;;;;;;;4979285;28;20148;-85
2024/01/09 03:26:18;;;;;;;0.10;0.10;;;;;;;;;;4995423;28;20620;-85
2024/01/09 03:28:44;;;;;;;0.30;0.30;;;;;;;;;;4995122;28;20096;-84
2024/01/09 03:31:23;;;;;;;0.20;0.20;;;;;;;;;;5011656;28;20133;-84
2024/01/09 03:33:49;;;;;;;0.30;0.30;;;;;;;;;;4978842;28;20041;-84
2024/01/09 03:36:15;;;;;;;0.40;0.22;;;;;;;;;;4994999;28;20104;-85
2024/01/09 03:38:41;;;;;;;0.15;0.15;;;;;;;;;;4995335;28;20044;-84
2024/01/09 03:41:07;;;;;;;0.10;0.10;;;;;;;;;;4994810;28;20497;-84
2024/01/09 03:43:33;;;;;;;0.10;0.10;;;;;;;;;;4978755;28;20485;-84
2024/01/09 03:45:59;;;;;;;0.20;0.20;;;;;;;;;;5011357;28;20052;-84
2024/01/09 03:48:25;;;;;;;0.20;0.20;;;;;;;;;;4978583;28;20045;-84
2024/01/09 03:50:51;;;;;;;0.10;0.10;;;;;;;;;;5011511;28;20038;-84
2024/01/09 03:53:17;;;;;;;0.10;0.10;;;;;;;;;;5011131;28;20512;-84
2024/01/09 03:55:43;;;;;;;0.10;0.10;;;;;;;;;;4994883;28;20064;-84
2024/01/09 03:58:11;;;;;;;0.13;0.13;;;;;;;;;;5011384;28;20041;-84
2024/01/09 04:00:38;;;;;;;0.20;0.20;;;;;;;;;;5011401;28;20056;-84
2024/01/09 04:03:04;;;;;;;0.60;0.30;;;;;;;;;;5013300;28;20448;-84
2024/01/09 04:05:30;;;;;;;0.10;0.10;;;;;;;;;;4999055;28;20120;-84
2024/01/09 04:07:56;;;;;;;0.10;0.10;;;;;;;;;;5015588;28;20133;-84
2024/01/09 04:10:22;;;;;;;0.43;0.43;;;;;;;;;;5016553;28;20466;-83
2024/01/09 04:12:48;;;;;;;0.40;0.40;;;;;;;;;;4982813;28;20221;-84
2024/01/09 04:15:14;;;;;;;0.52;0.20;;;;;;;;;;5015313;28;20550;-84
2024/01/09 04:17:40;;;;;;;0.17;0.17;;;;;;;;;;5015193;28;20034;-84
2024/01/09 04:20:06;;;;;;;0.10;0.10;;;;;;;;;;5014938;28;20034;-84
2024/01/09 04:22:32;;;;;;;0.20;0.20;;;;;;;;;;4999069;28;20221;-85
2024/01/09 04:24:59;;;;;;;0.38;0.28;;;;;;;;;;5015045;28;20160;-85
2024/01/09 04:27:25;;;;;;;0.15;0.15;;;;;;;;;;4998867;28;20092;-85
2024/01/09 04:29:51;;;;;;;0.20;0.20;;;;;;;;;;5015068;28;20037;-84
2024/01/09 04:32:17;;;;;;;0.10;0.10;;;;;;;;;;4998384;28;20038;-84
2024/01/09 04:34:43;;;;;;;0.20;0.20;;;;;;;;;;4998755;28;20041;-85
2024/01/09 04:37:09;;;;;;;0.10;0.10;;;;;;;;;;5014954;28;20042;-85
2024/01/09 04:39:35;;;;;;;0.25;0.25;;;;;;;;;;4998592;28;20140;-85
2024/01/09 04:42:01;;;;;;;1.10;0.20;;;;;;;;;;5014726;28;20042;-84
2024/01/09 04:44:27;;;;;;;0.30;0.30;;;;;;;;;;4998155;28;20081;-85
2024/01/09 04:46:53;;;;;;;0.10;0.10;;;;;;;;;;5014487;28;20371;-85
2024/01/09 04:49:19;;;;;;;0.10;0.10;;;;;;;;;;4998356;28;20042;-85
2024/01/09 04:51:45;;;;;;;0.25;0.25;;;;;;;;;;5014793;28;20045;-85
2024/01/09 04:54:11;;;;;;;0.10;0.10;;;;;;;;;;5014469;28;20045;-84
2024/01/09 04:56:37;;;;;;;0.10;0.10;;;;;;;;;;4981908;28;20064;-85
2024/01/09 04:59:03;;;;;;;0.10;0.10;;;;;;;;;;4998023;28;20038;-85
2024/01/09 05:01:29;;;;;;;0.20;0.20;;;;;;;;;;5014221;28;20081;-85
2024/01/09 05:03:55;;;;;;;0.40;0.40;;;;;;;;;;4982022;28;20044;-84
2024/01/09 05:06:22;;;;;;;0.57;0.57;;;;;;;;;;5014251;28;20509;-85
2024/01/09 05:08:48;;;;;;;0.10;0.10;;;;;;;;;;4998075;28;20081;-85
2024/01/09 05:11:14;;;;;;;0.15;0.15;;;;;;;;;;4997623;28;20054;-85
2024/01/09 05:13:40;;;;;;;0.40;0.40;;;;;;;;;;4980860;28;20042;-85
2024/01/09 05:16:06;;;;;;;0.10;0.10;;;;;;;;;;5013624;28;20119;-85
2024/01/09 05:18:32;;;;;;;0.10;0.10;;;;;;;;;;4997885;28;20429;-84
2024/01/09 05:20:58;;;;;;;0.17;0.17;;;;;;;;;;5014001;28;20050;-84
2024/01/09 05:23:25;;;;;;;0.20;0.20;;;;;;;;;;5014213;28;20118;-85
2024/01/09 05:25:51;;;;;;;0.43;0.30;;;;;;;;;;4998232;28;20385;-85
2024/01/09 05:28:17;;;;;;;0.40;0.40;;;;;;;;;;5014064;28;20049;-85
2024/01/09 05:30:43;;;;;;;0.20;0.20;;;;;;;;;;5013972;28;20041;-85
2024/01/09 05:33:09;;;;;;;0.10;0.10;;;;;;;;;;4997704;28;20061;-85
2024/01/09 05:35:35;;;;;;;0.20;0.20;;;;;;;;;;5013706;28;20060;-85
2024/01/09 05:38:01;;;;;;;0.20;0.20;;;;;;;;;;5014163;28;20105;-85
2024/01/09 05:40:27;;;;;;;0.20;0.20;;;;;;;;;;4997535;28;20078;-85
2024/01/09 05:42:53;;;;;;;0.28;0.28;;;;;;;;;;4997388;28;20038;-84
2024/01/09 05:45:19;;;;;;;0.17;0.17;;;;;;;;;;5013741;28;20042;-84
2024/01/09 05:47:45;;;;;;;0.20;0.20;;;;;;;;;;4981254;28;20088;-85
2024/01/09 05:50:11;;;;;;;0.30;0.30;;;;;;;;;;5013406;28;20046;-84
2024/01/09 05:52:40;;;;;;;0.20;0.17;;;;;;;;;;4996967;28;20129;-84
2024/01/09 05:55:07;;;;;;;0.20;0.20;;;;;;;;;;5014656;28;20097;-85
2024/01/09 05:57:32;;;;;;;0.10;0.10;;;;;;;;;;5013214;28;20050;-85
2024/01/09 05:59:59;;;;;;;0.10;0.10;;;;;;;;;;4997052;28;20041;-84
2024/01/09 06:02:28;;;;;;;0.20;0.20;;;;;;;;;;5013489;28;20045;-85
2024/01/09 06:04:54;;;;;;;0.20;0.20;;;;;;;;;;5013220;28;20046;-84
2024/01/09 06:07:20;;;;;;;0.10;0.10;;;;;;;;;;4997630;28;20096;-84
2024/01/09 06:09:46;;;;;;;0.17;0.17;;;;;;;;;;4996865;28;20046;-84
2024/01/09 06:12:12;;;;;;;0.63;0.30;;;;;;;;;;4996828;28;20045;-84
2024/01/09 06:14:38;;;;;;;0.10;0.10;;;;;;;;;;4996627;28;20133;-84
2024/01/09 06:17:05;;;;;;;0.10;0.10;;;;;;;;;;5013041;28;20121;-84
2024/01/09 06:19:31;;;;;;;0.10;0.10;;;;;;;;;;5012986;28;20065;-84
2024/01/09 06:21:57;;;;;;;0.20;0.20;;;;;;;;;;4996770;28;20129;-84
2024/01/09 06:24:23;;;;;;;0.10;0.10;;;;;;;;;;5013113;28;20496;-85
2024/01/09 06:26:49;;;;;;;0.32;0.32;;;;;;;;;;4996378;28;20042;-85
2024/01/09 06:29:15;;;;;;;0.65;0.65;;;;;;;;;;4980402;28;20038;-85
2024/01/09 06:31:41;;;;;;;0.25;0.25;;;;;;;;;;4996583;28;20060;-84
2024/01/09 06:34:07;;;;;;;0.32;0.32;;;;;;;;;;4980107;28;20452;-85
2024/01/09 06:36:33;;;;;;;0.10;0.10;;;;;;;;;;4996498;28;20125;-85
2024/01/09 06:38:59;;;;;;;0.20;0.20;;;;;;;;;;4996405;28;20121;-84
2024/01/09 06:41:25;;;;;;;0.10;0.10;;;;;;;;;;5012593;28;20038;-85
2024/01/09 06:43:51;;;;;;;0.20;0.20;;;;;;;;;;4996657;28;20107;-85
2024/01/09 06:46:18;;;;;;;0.45;0.30;;;;;;;;;;5012599;28;20053;-85
2024/01/09 06:48:43;;;;;;;0.10;0.10;;;;;;;;;;4996167;28;20050;-84
2024/01/09 06:51:11;;;;;;;0.13;0.13;;;;;;;;;;5012317;28;20096;-85
2024/01/09 06:53:37;;;;;;;0.20;0.20;;;;;;;;;;5012246;28;20104;-85
2024/01/09 06:56:04;;;;;;;0.10;0.10;;;;;;;;;;5012108;28;20053;-85
2024/01/09 06:58:30;;;;;;;0.20;0.20;;;;;;;;;;4996259;28;20053;-85
2024/01/09 07:00:56;;;;;;;1.08;0.15;;;;;;;;;;4979952;28;20041;-84
2024/01/09 07:03:22;;;;;;;0.20;0.20;;;;;;;;;;5012246;28;20083;-85
2024/01/09 07:05:48;;;;;;;0.30;0.30;;;;;;;;;;5013445;28;20052;-85
2024/01/09 07:08:14;;;;;;;0.20;0.20;;;;;;;;;;4995866;28;20054;-85
2024/01/09 07:10:41;;;;;;;1.35;1.25;;;;;;;;;;4995852;28;20049;-87
2024/01/09 07:13:07;;;;;;;0.52;0.52;;;;;;;;;;5012935;28;20042;-85
2024/01/09 07:15:33;;;;;;;0.85;0.85;;;;;;;;;;5011891;28;20053;-85
2024/01/09 07:17:59;;;;;;;0.20;0.20;;;;;;;;;;4995674;28;20397;-84
2024/01/09 07:20:25;;;;;;;0.10;0.10;;;;;;;;;;5011949;28;20077;-85
2024/01/09 07:22:51;;;;;;;0.47;0.38;;;;;;;;;;4995810;28;20128;-85
2024/01/09 07:25:17;;;;;;;0.15;0.15;;;;;;;;;;4995872;28;20202;-85
2024/01/09 07:27:43;;;;;;;0.20;0.20;;;;;;;;;;5011821;28;20489;-85
2024/01/09 07:30:09;;;;;;;0.20;0.20;;;;;;;;;;4995469;28;20046;-85
2024/01/09 07:32:35;;;;;;;0.20;0.20;;;;;;;;;;5011984;28;20092;-85
2024/01/09 07:35:01;;;;;;;0.20;0.20;;;;;;;;;;4995643;28;20384;-86
2024/01/09 07:37:27;;;;;;;0.10;0.10;;;;;;;;;;5011404;28;20096;-85
2024/01/09 07:39:54;;;;;;;0.22;0.22;;;;;;;;;;4995712;28;20670;-85
2024/01/09 07:42:20;;;;;;;0.13;0.13;;;;;;;;;;4995664;28;20405;-85
2024/01/09 07:44:46;;;;;;;0.22;0.22;;;;;;;;;;4995348;28;20552;-86
2024/01/09 07:47:12;;;;;;;0.32;0.32;;;;;;;;;;5011965;28;20054;-85
2024/01/09 07:49:39;;;;;;;0.10;0.10;;;;;;;;;;4995227;28;20045;-86
2024/01/09 07:52:05;;;;;;;0.10;0.10;;;;;;;;;;5011216;28;20046;-86
2024/01/09 07:54:32;;;;;;;0.20;0.20;;;;;;;;;;5012051;28;20057;-86
2024/01/09 07:56:58;;;;;;;0.10;0.10;;;;;;;;;;4997755;28;20062;-84
2024/01/09 07:59:24;;;;;;;0.38;0.20;;;;;;;;;;4979135;28;20504;-86
2024/01/09 08:01:54;;;;;;;0.17;0.17;;;;;;;;;;4994864;28;20038;-85
2024/01/09 08:04:22;;;;;;;0.10;0.10;;;;;;;;;;4979465;28;20504;-86
2024/01/09 08:06:50;;;;;;;1.55;0.50;;;;;;;;;;4995032;28;20041;-85
2024/01/09 08:09:17;;;;;;;1.33;0.82;;;;;;;;;;4979297;28;20038;-85
2024/01/09 08:11:43;;;;;;;0.52;0.52;;;;;;;;;;4994650;28;20065;-86
2024/01/09 08:14:09;;;;;;;0.40;0.40;;;;;;;;;;4995067;28;20042;-85
2024/01/09 08:16:35;;;;;;;1.58;1.38;;;;;;;;;;5009543;28;20107;-86
2024/01/09 08:19:01;;;;;;;0.20;0.20;;;;;;;;;;5034140;28;20143;-85
2024/01/09 08:21:27;;;;;;;0.10;0.10;;;;;;;;;;5050907;28;20131;-85
2024/01/09 08:23:53;;;;;;;1.95;0.40;;;;;;;;;;5034284;28;20370;-84
2024/01/09 08:26:19;;;;;;;1.20;1.20;;;;;;;;;;5050595;28;20048;-85
2024/01/09 08:28:45;;;;;;;0.50;0.50;;;;;;;;;;5033850;28;20049;-84
2024/01/09 08:31:11;;;;;;;0.65;0.30;;;;;;;;;;5050776;28;20075;-85
2024/01/09 08:33:37;;;;;;;0.63;0.60;;;;;;;;;;5033867;28;20080;-86
2024/01/09 08:36:03;;;;;;;0.10;0.10;;;;;;;;;;5050465;28;20080;-85
2024/01/09 08:38:29;;;;;;;0.20;0.20;;;;;;;;;;5051007;28;20040;-85
2024/01/09 08:40:56;;;;;;;0.35;0.35;;;;;;;;;;5050268;28;20087;-84
2024/01/09 08:43:22;;;;;;;0.60;0.38;;;;;;;;;;5033987;28;20083;-84
2024/01/09 08:45:49;;;;;;;0.20;0.20;;;;;;;;;;5033892;28;20071;-84
2024/01/09 08:48:15;;;;;;;0.20;0.20;;;;;;;;;;5018119;28;20047;-83
2024/01/09 08:50:41;;;;;;;0.32;0.32;;;;;;;;;;5037274;28;20049;-83
2024/01/09 08:53:07;;;;;;;0.75;0.75;;;;;;;;;;5053854;28;20447;-83
2024/01/09 08:55:34;;;;;;;0.22;0.22;;;;;;;;;;5036859;28;20095;-83
2024/01/09 08:58:00;;;;;;;0.30;0.30;;;;;;;;;;5021286;28;20052;-83
2024/01/09 09:00:27;;;;;;;0.20;0.20;;;;;;;;;;5037205;28;20088;-83
2024/01/09 09:02:53;;;;;;;0.10;0.10;;;;;;;;;;5036395;28;20068;-82
2024/01/09 09:05:19;;;;;;;2.83;1.33;;;;;;;;;;5000832;28;20400;-83
2024/01/09 09:07:45;;;;;;;0.52;0.52;;;;;;;;;;5033791;28;20037;-83
2024/01/09 09:10:11;;;;;;;0.20;0.20;;;;;;;;;;5033666;28;20045;-83
2024/01/09 09:12:37;;;;;;;0.38;0.20;;;;;;;;;;5033693;28;20103;-83
2024/01/09 09:15:03;;;;;;;0.10;0.10;;;;;;;;;;5031583;28;20049;-81
2024/01/09 09:17:30;;;;;;;0.20;0.20;;;;;;;;;;5053705;28;20049;-82
2024/01/09 09:19:57;;;;;;;0.20;0.20;;;;;;;;;;5033979;28;20041;-82
2024/01/09 09:22:25;;;;;;;0.68;0.28;;;;;;;;;;5053408;28;20040;-83
2024/01/09 09:24:52;;;;;;;0.20;0.20;;;;;;;;;;5037101;28;20059;-82
2024/01/09 09:27:18;;;;;;;0.30;0.30;;;;;;;;;;5053301;28;20116;-84
2024/01/09 09:29:44;;;;;;;0.25;0.25;;;;;;;;;;5053107;28;20041;-83
2024/01/09 09:32:14;;;;;;;0.60;0.60;;;;;;;;;;5053093;28;20475;-83
2024/01/09 09:34:40;;;;;;;0.25;0.25;;;;;;;;;;5052921;28;20048;-82
2024/01/09 09:37:06;;;;;;;0.57;0.40;;;;;;;;;;5020065;28;20116;-83
2024/01/09 09:39:32;;;;;;;0.10;0.10;;;;;;;;;;5053038;28;20531;-81
2024/01/09 09:41:59;;;;;;;0.20;0.20;;;;;;;;;;5052914;28;20083;-83
2024/01/09 09:44:25;;;;;;;0.10;0.10;;;;;;;;;;5052980;28;20041;-84
2024/01/09 09:46:51;;;;;;;0.10;0.10;;;;;;;;;;5036155;28;20488;-82
2024/01/09 09:49:18;;;;;;;0.40;0.40;;;;;;;;;;5036277;28;20094;-82
2024/01/09 09:51:44;;;;;;;0.28;0.28;;;;;;;;;;5052913;28;20048;-81
2024/01/09 09:54:10;;;;;;;0.20;0.20;;;;;;;;;;5036197;28;20048;-83
2024/01/09 09:56:36;;;;;;;0.28;0.28;;;;;;;;;;5035869;28;20099;-82
2024/01/09 09:59:02;;;;;;;0.32;0.32;;;;;;;;;;5036267;28;20049;-84
2024/01/09 10:01:28;;;;;;;0.10;0.10;;;;;;;;;;5035644;28;20041;-82
2024/01/09 10:04:01;;;;;;;0.20;0.20;;;;;;;;;;5012057;28;20329;-84
2024/01/09 10:06:27;;;;;;;0.75;0.75;;;;;;;;;;4999998;28;20041;-84
2024/01/09 10:08:54;;;;;;;0.25;0.25;;;;;;;;;;4999898;28;20516;-84
2024/01/09 10:11:20;;;;;;;0.47;0.47;;;;;;;;;;5032790;28;20358;-84
2024/01/09 10:13:46;;;;;;;2.08;0.40;;;;;;;;;;5015951;28;20045;-82
2024/01/09 10:16:13;;;;;;;1.25;1.25;;;;;;;;;;4999676;28;20041;-81
2024/01/09 10:18:39;;;;;;;0.28;0.28;;;;;;;;;;5015970;28;20201;-80
2024/01/09 10:21:07;;;;;;;0.20;0.20;;;;;;;;;;4999657;28;20041;-79
2024/01/09 10:23:35;;;;;;;2.30;0.77;;;;;;;;;;5016823;28;20042;-84
2024/01/09 10:26:02;;;;;;;0.30;0.30;;;;;;;;;;5015916;28;20045;-80
2024/01/09 10:28:28;;;;;;;0.32;0.32;;;;;;;;;;4999558;28;20563;-84
2024/01/09 10:30:54;;;;;;;0.30;0.22;;;;;;;;;;5032137;28;20045;-83
2024/01/09 10:33:20;;;;;;;0.20;0.20;;;;;;;;;;5032042;28;20041;-82
2024/01/09 10:35:46;;;;;;;0.20;0.20;;;;;;;;;;5015790;28;20447;-83
2024/01/09 10:38:13;;;;;;;0.40;0.32;;;;;;;;;;5031947;28;20033;-82
2024/01/09 10:40:39;;;;;;;0.43;0.25;;;;;;;;;;5015919;28;20045;-83
2024/01/09 10:43:05;;;;;;;0.50;0.50;;;;;;;;;;5015902;28;20102;-85
2024/01/09 10:45:32;;;;;;;0.30;0.30;;;;;;;;;;5015574;28;20052;-85
2024/01/09 10:47:59;;;;;;;0.45;0.45;;;;;;;;;;5015562;28;20049;-85
2024/01/09 10:50:26;;;;;;;0.30;0.30;;;;;;;;;;5015472;28;20045;-87
2024/01/09 10:52:52;;;;;;;0.20;0.20;;;;;;;;;;5015658;28;20083;-83
2024/01/09 10:55:19;;;;;;;0.30;0.30;;;;;;;;;;5015713;28;20068;-83
2024/01/09 10:57:48;;;;;;;0.20;0.20;;;;;;;;;;5015342;28;20050;-82
2024/01/09 11:00:14;;;;;;;0.20;0.20;;;;;;;;;;5032677;28;20041;-83
2024/01/09 11:02:40;;;;;;;0.13;0.13;;;;;;;;;;5015386;28;20038;-85
2024/01/09 11:05:07;;;;;;;0.13;0.13;;;;;;;;;;5015615;28;20400;-82
2024/01/09 11:07:35;;;;;;;0.10;0.10;;;;;;;;;;5015847;28;20116;-83
2024/01/09 11:10:02;;;;;;;0.25;0.25;;;;;;;;;;5031414;28;20056;-83
2024/01/09 11:12:30;;;;;;;0.10;0.10;;;;;;;;;;5030578;28;20049;-83
2024/01/09 11:15:16;;;;;;;0.10;0.10;;;;;;;;;;5031269;28;20045;-83
2024/01/09 11:17:42;;;;;;;0.90;0.90;;;;;;;;;;5023230;28;20049;-83
2024/01/09 11:20:09;;;;;;;0.20;0.20;;;;;;;;;;5014903;28;20091;-82
2024/01/09 11:22:39;;;;;;;1.80;0.25;;;;;;;;;;5031319;28;20053;-83
2024/01/09 11:25:05;;;;;;;0.10;0.10;;;;;;;;;;5031770;28;20120;-83
2024/01/09 11:27:41;;;;;;;0.40;0.40;;;;;;;;;;5015003;28;20451;-85
2024/01/09 11:30:07;;;;;;;0.32;0.32;;;;;;;;;;5014807;28;20547;-87
2024/01/09 11:32:33;;;;;;;0.10;0.10;;;;;;;;;;5014895;28;20073;-87
2024/01/09 11:35:13;;;;;;;1.15;0.30;;;;;;;;;;5015178;28;20037;-88
2024/01/09 11:37:39;;;;;;;0.10;0.10;;;;;;;;;;5015773;28;20496;-88
2024/01/09 11:40:11;;;;;;;0.10;0.10;;;;;;;;;;4998830;28;20048;-84
2024/01/09 11:42:44;;;;;;;0.17;0.17;;;;;;;;;;5015270;28;20512;-89
2024/01/09 11:45:11;;;;;;;0.17;0.17;;;;;;;;;;5015515;28;20508;-88
2024/01/09 11:47:38;;;;;;;0.20;0.20;;;;;;;;;;5031372;28;20052;-90
2024/01/09 11:50:07;;;;;;;0.30;0.30;;;;;;;;;;5015343;28;20099;-92
2024/01/09 11:52:35;;;;;;;0.10;0.10;;;;;;;;;;5016219;28;20041;-87
2024/01/09 11:55:01;;;;;;;0.10;0.10;;;;;;;;;;4999358;28;20034;-93
2024/01/09 11:57:29;;;;;;;0.20;0.20;;;;;;;;;;4999824;28;20097;-95
2024/01/09 11:59:55;;;;;;;0.50;0.50;;;;;;;;;;5000532;28;20124;-91
2024/01/09 12:02:21;;;;;;;0.20;0.20;;;;;;;;;;4999946;28;20443;-93
2024/01/09 12:04:47;;;;;;;0.10;0.10;;;;;;;;;;4999813;28;20045;-94
2024/01/09 12:07:13;;;;;;;0.20;0.20;;;;;;;;;;5001950;28;20045;-93
2024/01/09 12:09:40;;;;;;;0.20;0.20;;;;;;;;;;5015990;28;20041;-93
2024/01/09 12:12:09;;;;;;;0.10;0.10;;;;;;;;;;4999694;28;20042;-91
2024/01/09 12:14:35;;;;;;;0.20;0.20;;;;;;;;;;5032339;28;20045;-93
2024/01/09 12:17:01;;;;;;;0.35;0.35;;;;;;;;;;4998749;28;20091;-88
2024/01/09 12:19:27;;;;;;;0.20;0.20;;;;;;;;;;5014502;28;20049;-88
2024/01/09 12:21:53;;;;;;;0.40;0.40;;;;;;;;;;5030860;28;20551;-88
2024/01/09 12:24:19;;;;;;;0.95;0.40;;;;;;;;;;5033352;28;20037;-87
2024/01/09 12:26:45;;;;;;;0.10;0.10;;;;;;;;;;5018244;28;20043;-90
2024/01/09 12:29:12;;;;;;;0.10;0.10;;;;;;;;;;5018558;28;20048;-86
2024/01/09 12:31:38;;;;;;;1.60;1.20;;;;;;;;;;5002401;28;20110;-94
2024/01/09 12:34:04;;;;;;;0.10;0.10;;;;;;;;;;5036914;28;20129;-93
2024/01/09 12:36:31;;;;;;;0.22;0.22;;;;;;;;;;5019679;28;20037;-92
2024/01/09 12:38:57;;;;;;;0.10;0.10;;;;;;;;;;5003645;28;20124;-95
2024/01/09 12:41:24;;;;;;;0.63;0.40;;;;;;;;;;5019522;28;20037;-92
2024/01/09 12:43:51;;;;;;;0.63;0.63;;;;;;;;;;5019229;28;20137;-92
2024/01/09 12:46:21;;;;;;;0.13;0.13;;;;;;;;;;5019172;28;20045;-94
2024/01/09 12:48:47;;;;;;;0.10;0.10;;;;;;;;;;5019958;28;20072;-91
2024/01/09 12:51:14;;;;;;;0.10;0.10;;;;;;;;;;5019169;28;20048;-92
2024/01/09 12:53:40;;;;;;;0.10;0.10;;;;;;;;;;5019634;28;20054;-92
2024/01/09 12:56:13;;;;;;;0.10;0.10;;;;;;;;;;5002467;28;20072;-93
2024/01/09 12:58:41;;;;;;;0.10;0.10;;;;;;;;;;5003106;28;20057;-93
2024/01/09 13:01:07;;;;;;;0.10;0.10;;;;;;;;;;5019212;28;20573;-92
2024/01/09 13:03:33;;;;;;;0.10;0.10;;;;;;;;;;5018676;28;20041;-89
2024/01/09 13:06:04;;;;;;;0.45;0.45;;;;;;;;;;5019271;28;20128;-88
2024/01/09 13:08:31;;;;;;;0.15;0.15;;;;;;;;;;5021458;28;20053;-95
2024/01/09 13:11:03;;;;;;;0.10;0.10;;;;;;;;;;5021552;28;20044;-90
2024/01/09 13:13:31;;;;;;;0.50;0.50;;;;;;;;;;5018800;28;20060;-91
2024/01/09 13:15:57;;;;;;;0.10;0.10;;;;;;;;;;5017741;28;20506;-85
2024/01/09 13:18:23;;;;;;;0.10;0.10;;;;;;;;;;5033429;28;20046;-85
2024/01/09 13:20:49;;;;;;;0.10;0.10;;;;;;;;;;5016981;28;20042;-83
2024/01/09 13:23:16;;;;;;;0.20;0.20;;;;;;;;;;5017041;28;20049;-83
2024/01/09 13:25:43;;;;;;;0.10;0.10;;;;;;;;;;5033405;28;20084;-84
2024/01/09 13:28:09;;;;;;;0.10;0.10;;;;;;;;;;5018047;28;20197;-85
2024/01/09 13:30:35;;;;;;;0.10;0.10;;;;;;;;;;5016701;28;20052;-85
2024/01/09 13:33:03;;;;;;;0.10;0.10;;;;;;;;;;5017111;28;20377;-85
2024/01/09 13:35:32;;;;;;;0.20;0.20;;;;;;;;;;5015613;28;20300;-85
2024/01/09 13:37:58;;;;;;;0.10;0.10;;;;;;;;;;5016453;28;20045;-84
2024/01/09 13:40:24;;;;;;;0.10;0.10;;;;;;;;;;5016503;28;20069;-85
2024/01/09 13:42:50;;;;;;;0.43;0.28;;;;;;;;;;5033056;28;20041;-83
2024/01/09 13:45:16;;;;;;;7.95;0.85;;;;;;;;;;5033909;28;20041;-85
2024/01/09 13:47:42;;;;;;;0.10;0.10;;;;;;;;;;5033926;28;20057;-86
2024/01/09 13:50:09;;;;;;;0.20;0.20;;;;;;;;;;5016457;28;20489;-86
2024/01/09 13:52:35;;;;;;;0.20;0.20;;;;;;;;;;5032766;28;20091;-86
2024/01/09 13:55:03;;;;;;;0.20;0.20;;;;;;;;;;5000093;28;20125;-86
2024/01/09 13:57:29;;;;;;;0.10;0.10;;;;;;;;;;5032630;28;20057;-85
2024/01/09 13:59:55;;;;;;;0.70;0.25;;;;;;;;;;5016231;28;20179;-86
2024/01/09 14:02:21;;;;;;;0.10;0.10;;;;;;;;;;5016135;28;20048;-83
2024/01/09 14:04:47;;;;;;;0.20;0.20;;;;;;;;;;5032940;28;20049;-87
2024/01/09 14:07:15;;;;;;;0.10;0.10;;;;;;;;;;5016148;28;20516;-85
2024/01/09 14:09:41;;;;;;;0.20;0.20;;;;;;;;;;5016000;28;20041;-86
2024/01/09 14:12:07;;;;;;;0.40;0.40;;;;;;;;;;5015999;28;20037;-84
2024/01/09 14:14:33;;;;;;;0.38;0.38;;;;;;;;;;5016310;28;20132;-83
2024/01/09 14:17:00;;;;;;;1.25;0.65;;;;;;;;;;5032515;28;20045;-87
2024/01/09 14:19:26;;;;;;;0.20;0.20;;;;;;;;;;4999555;28;20041;-86
2024/01/09 14:21:52;;;;;;;0.10;0.10;;;;;;;;;;5032079;28;20041;-86
2024/01/09 14:24:18;;;;;;;0.20;0.20;;;;;;;;;;4999938;28;20424;-86
2024/01/09 14:26:47;;;;;;;0.15;0.15;;;;;;;;;;5016126;28;20072;-87
2024/01/09 14:29:13;;;;;;;0.10;0.10;;;;;;;;;;4999862;28;20122;-87
2024/01/09 14:31:39;;;;;;;0.15;0.15;;;;;;;;;;5015729;28;20049;-87
2024/01/09 14:34:05;;;;;;;0.10;0.10;;;;;;;;;;5032034;28;20401;-86
2024/01/09 14:36:32;;;;;;;0.10;0.10;;;;;;;;;;4999161;28;20106;-86
2024/01/09 14:38:58;;;;;;;0.10;0.10;;;;;;;;;;4999855;28;20490;-89